sensor_id;sensor_type;location;lat;lon;timestamp;P1;durP1;ratioP1;P2;durP2;ratioP2
63555;SDS011;49700;48.072;7.800;2023-11-19T00:01:22;4.68;;;1.33;;
63555;SDS011;49700;48.072;7.800;2023-11-19T00:03:48;2.53;;;1.40;;
63555;SDS011;49700;48.072;7.800;2023-11-19T00:06:14;1.65;;;1.42;;
63555;SDS011;49700;48.072;7.800;2023-11-19T00:08:42;1.27;;;1.10;;
63555;SDS011;49700;48.072;7.800;2023-11-19T00:11:08;2.22;;;1.60;;
63555;SDS011;49700;48.072;7.800;2023-11-19T00:13:34;3.47;;;1.10;;
63555;SDS011;49700;48.072;7.800;2023-11-19T00:15:59;1.50;;;1.20;;
63555;SDS011;49700;48.072;7.800;2023-11-19T00:18:25;2.27;;;1.23;;
63555;SDS011;49700;48.072;7.800;2023-11-19T00:20:50;2.50;;;1.40;;
63555;SDS011;49700;48.072;7.800;2023-11-19T00:23:16;2.80;;;1.40;;
63555;SDS011;49700;48.072;7.800;2023-11-19T00:25:41;6.03;;;1.30;;
63555;SDS011;49700;48.072;7.800;2023-11-19T00:28:06;2.00;;;1.40;;
63555;SDS011;49700;48.072;7.800;2023-11-19T00:30:32;1.73;;;1.60;;
63555;SDS011;49700;48.072;7.800;2023-11-19T00:32:58;2.67;;;1.52;;
63555;SDS011;49700;48.072;7.800;2023-11-19T00:35:24;2.10;;;1.60;;
63555;SDS011;49700;48.072;7.800;2023-11-19T00:37:49;3.30;;;1.60;;
63555;SDS011;49700;48.072;7.800;2023-11-19T00:40:16;2.28;;;1.48;;
63555;SDS011;49700;48.072;7.800;2023-11-19T00:42:43;2.67;;;1.45;;
63555;SDS011;49700;48.072;7.800;2023-11-19T00:45:09;1.97;;;1.40;;
63555;SDS011;49700;48.072;7.800;2023-11-19T00:47:35;3.45;;;2.50;;
63555;SDS011;49700;48.072;7.800;2023-11-19T00:50:03;2.87;;;1.20;;
63555;SDS011;49700;48.072;7.800;2023-11-19T00:52:29;3.88;;;1.65;;
63555;SDS011;49700;48.072;7.800;2023-11-19T00:54:55;2.17;;;1.47;;
63555;SDS011;49700;48.072;7.800;2023-11-19T00:57:22;2.85;;;1.63;;
63555;SDS011;49700;48.072;7.800;2023-11-19T00:59:47;1.90;;;1.00;;
63555;SDS011;49700;48.072;7.800;2023-11-19T01:02:12;1.50;;;1.30;;
63555;SDS011;49700;48.072;7.800;2023-11-19T01:04:39;3.65;;;1.02;;
63555;SDS011;49700;48.072;7.800;2023-11-19T01:07:05;2.67;;;1.37;;
63555;SDS011;49700;48.072;7.800;2023-11-19T01:09:37;2.05;;;1.05;;
63555;SDS011;49700;48.072;7.800;2023-11-19T01:12:03;2.90;;;1.03;;
63555;SDS011;49700;48.072;7.800;2023-11-19T01:14:29;1.00;;;0.90;;
63555;SDS011;49700;48.072;7.800;2023-11-19T01:16:55;1.30;;;1.13;;
63555;SDS011;49700;48.072;7.800;2023-11-19T01:19:21;1.20;;;1.10;;
63555;SDS011;49700;48.072;7.800;2023-11-19T01:21:48;1.10;;;1.00;;
63555;SDS011;49700;48.072;7.800;2023-11-19T01:24:14;1.40;;;0.93;;
63555;SDS011;49700;48.072;7.800;2023-11-19T01:26:39;1.53;;;1.13;;
63555;SDS011;49700;48.072;7.800;2023-11-19T01:29:10;1.20;;;1.10;;
63555;SDS011;49700;48.072;7.800;2023-11-19T01:31:40;1.65;;;0.90;;
63555;SDS011;49700;48.072;7.800;2023-11-19T01:34:06;1.55;;;1.00;;
63555;SDS011;49700;48.072;7.800;2023-11-19T01:36:32;1.53;;;1.03;;
63555;SDS011;49700;48.072;7.800;2023-11-19T01:38:57;1.40;;;1.10;;
63555;SDS011;49700;48.072;7.800;2023-11-19T01:41:23;1.00;;;0.83;;
63555;SDS011;49700;48.072;7.800;2023-11-19T01:43:50;1.50;;;1.40;;
63555;SDS011;49700;48.072;7.800;2023-11-19T01:46:15;3.13;;;1.07;;
63555;SDS011;49700;48.072;7.800;2023-11-19T01:48:45;2.00;;;1.20;;
63555;SDS011;49700;48.072;7.800;2023-11-19T01:51:12;2.42;;;0.98;;
63555;SDS011;49700;48.072;7.800;2023-11-19T01:53:38;2.20;;;1.10;;
63555;SDS011;49700;48.072;7.800;2023-11-19T01:56:04;1.80;;;1.40;;
63555;SDS011;49700;48.072;7.800;2023-11-19T01:58:31;4.20;;;1.23;;
63555;SDS011;49700;48.072;7.800;2023-11-19T02:00:56;2.20;;;1.23;;
63555;SDS011;49700;48.072;7.800;2023-11-19T02:03:22;1.80;;;1.27;;
63555;SDS011;49700;48.072;7.800;2023-11-19T02:05:51;1.25;;;1.15;;
63555;SDS011;49700;48.072;7.800;2023-11-19T02:08:18;1.65;;;1.55;;
63555;SDS011;49700;48.072;7.800;2023-11-19T02:10:44;1.83;;;1.35;;
63555;SDS011;49700;48.072;7.800;2023-11-19T02:13:10;1.77;;;1.67;;
63555;SDS011;49700;48.072;7.800;2023-11-19T02:15:36;2.15;;;1.10;;
63555;SDS011;49700;48.072;7.800;2023-11-19T02:18:17;18.43;;;2.43;;
63555;SDS011;49700;48.072;7.800;2023-11-19T02:20:44;1.20;;;1.10;;
63555;SDS011;49700;48.072;7.800;2023-11-19T02:23:09;2.50;;;1.10;;
63555;SDS011;49700;48.072;7.800;2023-11-19T02:25:35;0.87;;;0.80;;
63555;SDS011;49700;48.072;7.800;2023-11-19T02:28:02;1.85;;;0.95;;
63555;SDS011;49700;48.072;7.800;2023-11-19T02:30:29;1.70;;;1.35;;
63555;SDS011;49700;48.072;7.800;2023-11-19T02:32:57;2.72;;;1.30;;
63555;SDS011;49700;48.072;7.800;2023-11-19T02:35:31;1.30;;;1.20;;
63555;SDS011;49700;48.072;7.800;2023-11-19T02:37:57;1.30;;;0.95;;
63555;SDS011;49700;48.072;7.800;2023-11-19T02:40:24;1.30;;;1.00;;
63555;SDS011;49700;48.072;7.800;2023-11-19T02:42:50;1.10;;;1.00;;
63555;SDS011;49700;48.072;7.800;2023-11-19T02:45:20;1.15;;;1.05;;
63555;SDS011;49700;48.072;7.800;2023-11-19T02:47:48;1.50;;;1.40;;
63555;SDS011;49700;48.072;7.800;2023-11-19T02:50:13;1.40;;;1.30;;
63555;SDS011;49700;48.072;7.800;2023-11-19T02:52:43;1.20;;;1.10;;
63555;SDS011;49700;48.072;7.800;2023-11-19T02:55:12;1.15;;;0.90;;
63555;SDS011;49700;48.072;7.800;2023-11-19T02:57:38;1.42;;;1.23;;
63555;SDS011;49700;48.072;7.800;2023-11-19T03:02:43;1.75;;;1.10;;
63555;SDS011;49700;48.072;7.800;2023-11-19T03:05:19;2.15;;;1.25;;
63555;SDS011;49700;48.072;7.800;2023-11-19T03:07:44;2.87;;;1.43;;
63555;SDS011;49700;48.072;7.800;2023-11-19T03:10:10;1.53;;;1.13;;
63555;SDS011;49700;48.072;7.800;2023-11-19T03:12:40;1.55;;;1.45;;
63555;SDS011;49700;48.072;7.800;2023-11-19T03:15:06;4.10;;;1.35;;
63555;SDS011;49700;48.072;7.800;2023-11-19T03:17:32;1.55;;;1.30;;
63555;SDS011;49700;48.072;7.800;2023-11-19T03:19:59;5.55;;;1.40;;
63555;SDS011;49700;48.072;7.800;2023-11-19T03:22:26;1.35;;;1.20;;
63555;SDS011;49700;48.072;7.800;2023-11-19T03:24:51;2.37;;;1.50;;
63555;SDS011;49700;48.072;7.800;2023-11-19T03:27:17;1.47;;;1.20;;
63555;SDS011;49700;48.072;7.800;2023-11-19T03:29:42;2.97;;;1.47;;
63555;SDS011;49700;48.072;7.800;2023-11-19T03:32:08;1.67;;;1.33;;
63555;SDS011;49700;48.072;7.800;2023-11-19T03:34:33;1.40;;;1.30;;
63555;SDS011;49700;48.072;7.800;2023-11-19T03:36:59;2.50;;;1.20;;
63555;SDS011;49700;48.072;7.800;2023-11-19T03:39:24;1.20;;;1.10;;
63555;SDS011;49700;48.072;7.800;2023-11-19T03:41:50;1.70;;;1.20;;
63555;SDS011;49700;48.072;7.800;2023-11-19T03:44:16;4.80;;;1.13;;
63555;SDS011;49700;48.072;7.800;2023-11-19T03:46:41;2.60;;;1.07;;
63555;SDS011;49700;48.072;7.800;2023-11-19T03:49:07;1.20;;;1.10;;
63555;SDS011;49700;48.072;7.800;2023-11-19T03:51:33;1.00;;;0.90;;
63555;SDS011;49700;48.072;7.800;2023-11-19T03:53:59;1.77;;;1.00;;
63555;SDS011;49700;48.072;7.800;2023-11-19T03:56:25;2.22;;;1.10;;
63555;SDS011;49700;48.072;7.800;2023-11-19T03:58:52;2.80;;;1.08;;
63555;SDS011;49700;48.072;7.800;2023-11-19T04:01:17;1.20;;;0.97;;
63555;SDS011;49700;48.072;7.800;2023-11-19T04:03:43;2.27;;;1.10;;
63555;SDS011;49700;48.072;7.800;2023-11-19T04:06:09;2.30;;;0.97;;
63555;SDS011;49700;48.072;7.800;2023-11-19T04:08:35;1.85;;;1.42;;
63555;SDS011;49700;48.072;7.800;2023-11-19T04:11:02;1.33;;;0.90;;
63555;SDS011;49700;48.072;7.800;2023-11-19T04:13:29;1.55;;;0.80;;
63555;SDS011;49700;48.072;7.800;2023-11-19T04:15:54;1.40;;;0.80;;
63555;SDS011;49700;48.072;7.800;2023-11-19T04:18:20;1.33;;;1.00;;
63555;SDS011;49700;48.072;7.800;2023-11-19T04:20:46;1.23;;;1.13;;
63555;SDS011;49700;48.072;7.800;2023-11-19T04:23:12;1.30;;;1.00;;
63555;SDS011;49700;48.072;7.800;2023-11-19T04:25:37;0.97;;;0.87;;
63555;SDS011;49700;48.072;7.800;2023-11-19T04:28:03;1.00;;;0.90;;
63555;SDS011;49700;48.072;7.800;2023-11-19T04:30:29;0.90;;;0.80;;
63555;SDS011;49700;48.072;7.800;2023-11-19T04:32:56;2.28;;;1.00;;
63555;SDS011;49700;48.072;7.800;2023-11-19T04:35:22;1.23;;;0.83;;
63555;SDS011;49700;48.072;7.800;2023-11-19T04:37:47;5.37;;;0.97;;
63555;SDS011;49700;48.072;7.800;2023-11-19T04:40:13;0.80;;;0.67;;
63555;SDS011;49700;48.072;7.800;2023-11-19T04:42:38;1.00;;;0.90;;
63555;SDS011;49700;48.072;7.800;2023-11-19T04:45:06;1.20;;;0.80;;
63555;SDS011;49700;48.072;7.800;2023-11-19T04:47:35;0.80;;;0.75;;
63555;SDS011;49700;48.072;7.800;2023-11-19T04:50:01;1.40;;;0.63;;
63555;SDS011;49700;48.072;7.800;2023-11-19T04:52:27;1.20;;;0.73;;
63555;SDS011;49700;48.072;7.800;2023-11-19T04:54:52;0.70;;;0.70;;
63555;SDS011;49700;48.072;7.800;2023-11-19T04:57:18;1.73;;;0.80;;
63555;SDS011;49700;48.072;7.800;2023-11-19T04:59:43;0.80;;;0.60;;
63555;SDS011;49700;48.072;7.800;2023-11-19T05:02:09;0.83;;;0.70;;
63555;SDS011;49700;48.072;7.800;2023-11-19T05:04:34;1.30;;;0.80;;
63555;SDS011;49700;48.072;7.800;2023-11-19T05:07:00;0.90;;;0.80;;
63555;SDS011;49700;48.072;7.800;2023-11-19T05:09:26;1.13;;;0.73;;
63555;SDS011;49700;48.072;7.800;2023-11-19T05:11:51;0.77;;;0.60;;
63555;SDS011;49700;48.072;7.800;2023-11-19T05:14:17;1.17;;;0.67;;
63555;SDS011;49700;48.072;7.800;2023-11-19T05:16:43;0.90;;;0.68;;
63555;SDS011;49700;48.072;7.800;2023-11-19T05:19:09;0.90;;;0.70;;
63555;SDS011;49700;48.072;7.800;2023-11-19T05:21:34;1.33;;;0.70;;
63555;SDS011;49700;48.072;7.800;2023-11-19T05:24:01;1.80;;;0.60;;
63555;SDS011;49700;48.072;7.800;2023-11-19T05:26:29;0.70;;;0.60;;
63555;SDS011;49700;48.072;7.800;2023-11-19T05:28:55;0.70;;;0.60;;
63555;SDS011;49700;48.072;7.800;2023-11-19T05:31:21;0.70;;;0.60;;
63555;SDS011;49700;48.072;7.800;2023-11-19T05:33:46;0.60;;;0.60;;
63555;SDS011;49700;48.072;7.800;2023-11-19T05:36:12;0.70;;;0.60;;
63555;SDS011;49700;48.072;7.800;2023-11-19T05:38:38;0.80;;;0.70;;
63555;SDS011;49700;48.072;7.800;2023-11-19T05:41:03;0.90;;;0.80;;
63555;SDS011;49700;48.072;7.800;2023-11-19T05:43:30;1.27;;;0.70;;
63555;SDS011;49700;48.072;7.800;2023-11-19T05:45:55;2.03;;;0.60;;
63555;SDS011;49700;48.072;7.800;2023-11-19T05:48:21;0.70;;;0.70;;
63555;SDS011;49700;48.072;7.800;2023-11-19T05:50:46;0.70;;;0.53;;
63555;SDS011;49700;48.072;7.800;2023-11-19T05:53:14;0.60;;;0.60;;
63555;SDS011;49700;48.072;7.800;2023-11-19T05:55:40;0.70;;;0.60;;
63555;SDS011;49700;48.072;7.800;2023-11-19T05:58:13;0.75;;;0.70;;
63555;SDS011;49700;48.072;7.800;2023-11-19T06:00:39;0.80;;;0.60;;
63555;SDS011;49700;48.072;7.800;2023-11-19T06:03:05;0.70;;;0.60;;
63555;SDS011;49700;48.072;7.800;2023-11-19T06:05:32;0.80;;;0.60;;
63555;SDS011;49700;48.072;7.800;2023-11-19T06:07:57;0.70;;;0.70;;
63555;SDS011;49700;48.072;7.800;2023-11-19T06:10:22;0.90;;;0.80;;
63555;SDS011;49700;48.072;7.800;2023-11-19T06:12:54;0.60;;;0.60;;
63555;SDS011;49700;48.072;7.800;2023-11-19T06:15:21;0.70;;;0.57;;
63555;SDS011;49700;48.072;7.800;2023-11-19T06:17:46;0.70;;;0.50;;
63555;SDS011;49700;48.072;7.800;2023-11-19T06:20:12;0.97;;;0.60;;
63555;SDS011;49700;48.072;7.800;2023-11-19T06:22:39;0.70;;;0.70;;
63555;SDS011;49700;48.072;7.800;2023-11-19T06:25:05;0.70;;;0.60;;
63555;SDS011;49700;48.072;7.800;2023-11-19T06:27:32;0.70;;;0.57;;
63555;SDS011;49700;48.072;7.800;2023-11-19T06:29:57;0.80;;;0.70;;
63555;SDS011;49700;48.072;7.800;2023-11-19T06:32:23;1.00;;;0.77;;
63555;SDS011;49700;48.072;7.800;2023-11-19T06:34:49;0.70;;;0.65;;
63555;SDS011;49700;48.072;7.800;2023-11-19T06:37:14;1.10;;;1.00;;
63555;SDS011;49700;48.072;7.800;2023-11-19T06:39:40;0.70;;;0.60;;
63555;SDS011;49700;48.072;7.800;2023-11-19T06:42:05;0.80;;;0.70;;
63555;SDS011;49700;48.072;7.800;2023-11-19T06:44:32;0.93;;;0.80;;
63555;SDS011;49700;48.072;7.800;2023-11-19T06:46:58;0.80;;;0.73;;
63555;SDS011;49700;48.072;7.800;2023-11-19T06:49:23;0.67;;;0.60;;
63555;SDS011;49700;48.072;7.800;2023-11-19T06:51:49;0.73;;;0.68;;
63555;SDS011;49700;48.072;7.800;2023-11-19T06:54:15;2.97;;;0.80;;
63555;SDS011;49700;48.072;7.800;2023-11-19T06:56:41;1.55;;;1.25;;
63555;SDS011;49700;48.072;7.800;2023-11-19T06:59:06;1.20;;;0.60;;
63555;SDS011;49700;48.072;7.800;2023-11-19T07:01:36;1.92;;;0.70;;
63555;SDS011;49700;48.072;7.800;2023-11-19T07:04:01;0.95;;;0.75;;
63555;SDS011;49700;48.072;7.800;2023-11-19T07:06:33;0.80;;;0.60;;
63555;SDS011;49700;48.072;7.800;2023-11-19T07:08:59;0.98;;;0.60;;
63555;SDS011;49700;48.072;7.800;2023-11-19T07:11:27;0.82;;;0.68;;
63555;SDS011;49700;48.072;7.800;2023-11-19T07:13:53;1.00;;;0.63;;
63555;SDS011;49700;48.072;7.800;2023-11-19T07:16:19;0.70;;;0.60;;
63555;SDS011;49700;48.072;7.800;2023-11-19T07:18:46;1.15;;;0.70;;
63555;SDS011;49700;48.072;7.800;2023-11-19T07:21:15;0.70;;;0.60;;
63555;SDS011;49700;48.072;7.800;2023-11-19T07:23:40;1.53;;;0.80;;
63555;SDS011;49700;48.072;7.800;2023-11-19T07:26:06;0.80;;;0.65;;
63555;SDS011;49700;48.072;7.800;2023-11-19T07:28:35;0.95;;;0.60;;
63555;SDS011;49700;48.072;7.800;2023-11-19T07:31:01;1.00;;;0.70;;
63555;SDS011;49700;48.072;7.800;2023-11-19T07:33:27;0.80;;;0.70;;
63555;SDS011;49700;48.072;7.800;2023-11-19T07:35:53;0.70;;;0.70;;
63555;SDS011;49700;48.072;7.800;2023-11-19T07:38:18;1.47;;;0.80;;
63555;SDS011;49700;48.072;7.800;2023-11-19T07:40:43;0.87;;;0.60;;
63555;SDS011;49700;48.072;7.800;2023-11-19T07:43:09;0.70;;;0.60;;
63555;SDS011;49700;48.072;7.800;2023-11-19T07:45:34;1.00;;;0.90;;
63555;SDS011;49700;48.072;7.800;2023-11-19T07:48:00;1.47;;;0.80;;
63555;SDS011;49700;48.072;7.800;2023-11-19T07:50:26;0.80;;;0.70;;
63555;SDS011;49700;48.072;7.800;2023-11-19T07:52:52;2.67;;;0.70;;
63555;SDS011;49700;48.072;7.800;2023-11-19T07:55:18;0.80;;;0.60;;
63555;SDS011;49700;48.072;7.800;2023-11-19T07:57:44;1.00;;;0.70;;
63555;SDS011;49700;48.072;7.800;2023-11-19T08:00:10;0.80;;;0.80;;
63555;SDS011;49700;48.072;7.800;2023-11-19T08:02:39;2.22;;;0.80;;
63555;SDS011;49700;48.072;7.800;2023-11-19T08:05:04;0.90;;;0.73;;
63555;SDS011;49700;48.072;7.800;2023-11-19T08:07:31;1.15;;;0.88;;
63555;SDS011;49700;48.072;7.800;2023-11-19T08:09:56;1.43;;;0.70;;
63555;SDS011;49700;48.072;7.800;2023-11-19T08:12:22;0.90;;;0.80;;
63555;SDS011;49700;48.072;7.800;2023-11-19T08:14:47;1.03;;;0.77;;
63555;SDS011;49700;48.072;7.800;2023-11-19T08:17:14;0.90;;;0.80;;
63555;SDS011;49700;48.072;7.800;2023-11-19T08:19:39;1.10;;;1.00;;
63555;SDS011;49700;48.072;7.800;2023-11-19T08:22:05;0.90;;;0.70;;
63555;SDS011;49700;48.072;7.800;2023-11-19T08:24:30;4.03;;;1.10;;
63555;SDS011;49700;48.072;7.800;2023-11-19T08:26:55;1.13;;;0.80;;
63555;SDS011;49700;48.072;7.800;2023-11-19T08:29:21;0.80;;;0.80;;
63555;SDS011;49700;48.072;7.800;2023-11-19T08:31:46;1.60;;;1.00;;
63555;SDS011;49700;48.072;7.800;2023-11-19T08:34:12;1.50;;;0.87;;
63555;SDS011;49700;48.072;7.800;2023-11-19T08:36:37;0.90;;;0.83;;
63555;SDS011;49700;48.072;7.800;2023-11-19T08:39:03;0.83;;;0.83;;
63555;SDS011;49700;48.072;7.800;2023-11-19T08:41:28;1.67;;;0.90;;
63555;SDS011;49700;48.072;7.800;2023-11-19T08:43:54;1.57;;;0.97;;
63555;SDS011;49700;48.072;7.800;2023-11-19T08:46:19;4.50;;;3.57;;
63555;SDS011;49700;48.072;7.800;2023-11-19T08:48:45;1.13;;;1.03;;
63555;SDS011;49700;48.072;7.800;2023-11-19T08:51:11;2.08;;;1.00;;
63555;SDS011;49700;48.072;7.800;2023-11-19T08:53:37;1.23;;;1.05;;
63555;SDS011;49700;48.072;7.800;2023-11-19T08:56:03;1.53;;;0.87;;
63555;SDS011;49700;48.072;7.800;2023-11-19T08:58:29;2.03;;;1.20;;
63555;SDS011;49700;48.072;7.800;2023-11-19T09:00:55;1.20;;;1.10;;
63555;SDS011;49700;48.072;7.800;2023-11-19T09:03:21;1.63;;;0.90;;
63555;SDS011;49700;48.072;7.800;2023-11-19T09:05:46;1.60;;;0.80;;
63555;SDS011;49700;48.072;7.800;2023-11-19T09:08:12;1.10;;;0.90;;
63555;SDS011;49700;48.072;7.800;2023-11-19T09:10:37;1.27;;;0.90;;
63555;SDS011;49700;48.072;7.800;2023-11-19T09:13:03;1.03;;;0.83;;
63555;SDS011;49700;48.072;7.800;2023-11-19T09:15:29;1.83;;;1.33;;
63555;SDS011;49700;48.072;7.800;2023-11-19T09:17:54;1.23;;;1.13;;
63555;SDS011;49700;48.072;7.800;2023-11-19T09:20:20;2.90;;;1.30;;
63555;SDS011;49700;48.072;7.800;2023-11-19T09:22:45;1.10;;;0.90;;
63555;SDS011;49700;48.072;7.800;2023-11-19T09:25:11;1.20;;;1.10;;
63555;SDS011;49700;48.072;7.800;2023-11-19T09:27:36;0.93;;;0.80;;
63555;SDS011;49700;48.072;7.800;2023-11-19T09:30:02;1.13;;;1.07;;
63555;SDS011;49700;48.072;7.800;2023-11-19T09:32:29;1.45;;;1.02;;
63555;SDS011;49700;48.072;7.800;2023-11-19T09:34:54;1.07;;;0.80;;
63555;SDS011;49700;48.072;7.800;2023-11-19T09:37:20;2.13;;;1.10;;
63555;SDS011;49700;48.072;7.800;2023-11-19T09:39:45;1.10;;;0.80;;
63555;SDS011;49700;48.072;7.800;2023-11-19T09:42:11;1.00;;;0.90;;
63555;SDS011;49700;48.072;7.800;2023-11-19T09:44:40;0.90;;;0.80;;
63555;SDS011;49700;48.072;7.800;2023-11-19T09:47:07;1.10;;;1.00;;
63555;SDS011;49700;48.072;7.800;2023-11-19T09:49:34;1.60;;;1.33;;
63555;SDS011;49700;48.072;7.800;2023-11-19T09:52:01;1.98;;;1.00;;
63555;SDS011;49700;48.072;7.800;2023-11-19T09:54:27;2.08;;;1.20;;
63555;SDS011;49700;48.072;7.800;2023-11-19T09:56:53;1.97;;;1.30;;
63555;SDS011;49700;48.072;7.800;2023-11-19T09:59:25;1.38;;;1.20;;
63555;SDS011;49700;48.072;7.800;2023-11-19T10:01:51;2.23;;;1.27;;
63555;SDS011;49700;48.072;7.800;2023-11-19T10:04:17;2.90;;;1.20;;
63555;SDS011;49700;48.072;7.800;2023-11-19T10:06:44;1.63;;;1.30;;
63555;SDS011;49700;48.072;7.800;2023-11-19T10:09:11;2.83;;;1.40;;
63555;SDS011;49700;48.072;7.800;2023-11-19T10:11:37;1.92;;;1.50;;
63555;SDS011;49700;48.072;7.800;2023-11-19T10:14:03;3.13;;;1.23;;
63555;SDS011;49700;48.072;7.800;2023-11-19T10:16:29;1.00;;;0.90;;
63555;SDS011;49700;48.072;7.800;2023-11-19T10:18:58;2.58;;;1.17;;
63555;SDS011;49700;48.072;7.800;2023-11-19T10:21:24;2.20;;;1.73;;
63555;SDS011;49700;48.072;7.800;2023-11-19T10:23:53;1.23;;;1.13;;
63555;SDS011;49700;48.072;7.800;2023-11-19T10:26:22;1.80;;;0.82;;
63555;SDS011;49700;48.072;7.800;2023-11-19T10:28:48;1.20;;;1.10;;
63555;SDS011;49700;48.072;7.800;2023-11-19T10:31:17;0.90;;;0.80;;
63555;SDS011;49700;48.072;7.800;2023-11-19T10:33:44;1.60;;;1.20;;
63555;SDS011;49700;48.072;7.800;2023-11-19T10:36:10;1.48;;;0.90;;
63555;SDS011;49700;48.072;7.800;2023-11-19T10:38:40;1.23;;;1.02;;
63555;SDS011;49700;48.072;7.800;2023-11-19T10:41:31;5.43;;;1.20;;
63555;SDS011;49700;48.072;7.800;2023-11-19T10:43:58;1.90;;;0.90;;
63555;SDS011;49700;48.072;7.800;2023-11-19T10:46:35;4.40;;;0.80;;
63555;SDS011;49700;48.072;7.800;2023-11-19T10:49:05;1.20;;;0.90;;
63555;SDS011;49700;48.072;7.800;2023-11-19T10:51:31;0.82;;;0.80;;
63555;SDS011;49700;48.072;7.800;2023-11-19T10:54:00;1.92;;;1.08;;
63555;SDS011;49700;48.072;7.800;2023-11-19T10:56:29;1.40;;;0.93;;
63555;SDS011;49700;48.072;7.800;2023-11-19T10:58:56;1.63;;;1.17;;
63555;SDS011;49700;48.072;7.800;2023-11-19T11:01:26;0.93;;;0.85;;
63555;SDS011;49700;48.072;7.800;2023-11-19T11:03:59;2.85;;;1.30;;
63555;SDS011;49700;48.072;7.800;2023-11-19T11:06:26;1.75;;;1.20;;
63555;SDS011;49700;48.072;7.800;2023-11-19T11:08:52;2.60;;;1.67;;
63555;SDS011;49700;48.072;7.800;2023-11-19T11:11:19;1.00;;;0.90;;
63555;SDS011;49700;48.072;7.800;2023-11-19T11:13:49;1.00;;;0.90;;
63555;SDS011;49700;48.072;7.800;2023-11-19T11:16:19;2.30;;;1.00;;
63555;SDS011;49700;48.072;7.800;2023-11-19T11:18:46;1.70;;;0.93;;
63555;SDS011;49700;48.072;7.800;2023-11-19T11:21:15;1.67;;;0.80;;
63555;SDS011;49700;48.072;7.800;2023-11-19T11:32:33;1.20;;;1.10;;
63555;SDS011;49700;48.072;7.800;2023-11-19T11:35:12;3.17;;;0.95;;
63555;SDS011;49700;48.072;7.800;2023-11-19T11:37:55;1.70;;;1.00;;
63555;SDS011;49700;48.072;7.800;2023-11-19T11:40:26;1.20;;;1.10;;
63555;SDS011;49700;48.072;7.800;2023-11-19T11:42:52;1.40;;;0.83;;
63555;SDS011;49700;48.072;7.800;2023-11-19T11:45:18;1.00;;;0.90;;
63555;SDS011;49700;48.072;7.800;2023-11-19T11:50:19;1.20;;;1.00;;
63555;SDS011;49700;48.072;7.800;2023-11-19T11:56:05;3.55;;;1.73;;
63555;SDS011;49700;48.072;7.800;2023-11-19T11:58:20;1.40;;;1.30;;
63555;SDS011;49700;48.072;7.800;2023-11-19T12:00:47;1.70;;;1.20;;
63555;SDS011;49700;48.072;7.800;2023-11-19T12:03:13;2.55;;;1.20;;
63555;SDS011;49700;48.072;7.800;2023-11-19T12:05:43;1.67;;;1.23;;
63555;SDS011;49700;48.072;7.800;2023-11-19T12:08:10;1.65;;;1.10;;
63555;SDS011;49700;48.072;7.800;2023-11-19T12:10:38;2.75;;;1.40;;
63555;SDS011;49700;48.072;7.800;2023-11-19T12:13:10;1.85;;;1.50;;
63555;SDS011;49700;48.072;7.800;2023-11-19T12:18:22;1.60;;;1.33;;
63555;SDS011;49700;48.072;7.800;2023-11-19T12:20:48;1.60;;;1.20;;
63555;SDS011;49700;48.072;7.800;2023-11-19T12:23:14;1.70;;;1.10;;
63555;SDS011;49700;48.072;7.800;2023-11-19T12:25:40;3.30;;;1.37;;
63555;SDS011;49700;48.072;7.800;2023-11-19T12:28:11;3.58;;;1.30;;
63555;SDS011;49700;48.072;7.800;2023-11-19T12:30:37;1.25;;;0.90;;
63555;SDS011;49700;48.072;7.800;2023-11-19T12:33:07;2.00;;;1.10;;
63555;SDS011;49700;48.072;7.800;2023-11-19T12:35:39;1.52;;;1.35;;
63555;SDS011;49700;48.072;7.800;2023-11-19T12:38:05;1.30;;;1.20;;
63555;SDS011;49700;48.072;7.800;2023-11-19T12:40:31;2.50;;;1.30;;
63555;SDS011;49700;48.072;7.800;2023-11-19T12:42:57;2.10;;;1.10;;
63555;SDS011;49700;48.072;7.800;2023-11-19T12:45:23;2.53;;;1.10;;
63555;SDS011;49700;48.072;7.800;2023-11-19T12:47:49;1.10;;;1.00;;
63555;SDS011;49700;48.072;7.800;2023-11-19T12:50:20;1.45;;;1.27;;
63555;SDS011;49700;48.072;7.800;2023-11-19T12:52:55;3.40;;;1.80;;
63555;SDS011;49700;48.072;7.800;2023-11-19T12:55:25;1.30;;;1.20;;
63555;SDS011;49700;48.072;7.800;2023-11-19T12:57:52;2.30;;;1.27;;
63555;SDS011;49700;48.072;7.800;2023-11-19T13:00:23;2.55;;;1.20;;
63555;SDS011;49700;48.072;7.800;2023-11-19T13:02:53;1.92;;;1.05;;
63555;SDS011;49700;48.072;7.800;2023-11-19T13:05:31;3.25;;;1.00;;
63555;SDS011;49700;48.072;7.800;2023-11-19T13:07:58;1.75;;;1.10;;
63555;SDS011;49700;48.072;7.800;2023-11-19T13:10:30;1.85;;;1.40;;
63555;SDS011;49700;48.072;7.800;2023-11-19T13:13:19;2.05;;;1.35;;
63555;SDS011;49700;48.072;7.800;2023-11-19T13:15:45;1.58;;;1.00;;
63555;SDS011;49700;48.072;7.800;2023-11-19T13:18:11;1.50;;;1.20;;
63555;SDS011;49700;48.072;7.800;2023-11-19T13:20:36;1.87;;;1.20;;
63555;SDS011;49700;48.072;7.800;2023-11-19T13:23:04;1.30;;;1.00;;
63555;SDS011;49700;48.072;7.800;2023-11-19T13:25:30;1.42;;;1.30;;
63555;SDS011;49700;48.072;7.800;2023-11-19T13:27:59;1.08;;;0.93;;
63555;SDS011;49700;48.072;7.800;2023-11-19T13:30:25;1.30;;;1.10;;
63555;SDS011;49700;48.072;7.800;2023-11-19T13:32:51;1.85;;;1.13;;
63555;SDS011;49700;48.072;7.800;2023-11-19T13:35:18;2.47;;;1.50;;
63555;SDS011;49700;48.072;7.800;2023-11-19T13:37:44;2.38;;;1.10;;
63555;SDS011;49700;48.072;7.800;2023-11-19T13:40:10;1.35;;;1.25;;
63555;SDS011;49700;48.072;7.800;2023-11-19T13:42:43;2.38;;;1.20;;
63555;SDS011;49700;48.072;7.800;2023-11-19T13:45:10;1.92;;;1.30;;
63555;SDS011;49700;48.072;7.800;2023-11-19T13:47:37;2.40;;;1.50;;
63555;SDS011;49700;48.072;7.800;2023-11-19T13:50:07;3.67;;;1.45;;
63555;SDS011;49700;48.072;7.800;2023-11-19T13:52:36;2.20;;;1.42;;
63555;SDS011;49700;48.072;7.800;2023-11-19T13:55:07;3.15;;;1.10;;
63555;SDS011;49700;48.072;7.800;2023-11-19T13:57:36;1.98;;;1.20;;
63555;SDS011;49700;48.072;7.800;2023-11-19T14:00:11;1.92;;;1.10;;
63555;SDS011;49700;48.072;7.800;2023-11-19T14:02:44;2.33;;;1.30;;
63555;SDS011;49700;48.072;7.800;2023-11-19T14:05:11;3.88;;;1.33;;
63555;SDS011;49700;48.072;7.800;2023-11-19T14:07:37;1.10;;;1.00;;
63555;SDS011;49700;48.072;7.800;2023-11-19T14:10:03;3.38;;;1.35;;
63555;SDS011;49700;48.072;7.800;2023-11-19T14:12:31;2.72;;;1.58;;
63555;SDS011;49700;48.072;7.800;2023-11-19T14:14:57;5.07;;;1.92;;
63555;SDS011;49700;48.072;7.800;2023-11-19T14:17:23;3.15;;;1.70;;
63555;SDS011;49700;48.072;7.800;2023-11-19T14:19:50;2.28;;;1.77;;
63555;SDS011;49700;48.072;7.800;2023-11-19T14:22:16;4.60;;;1.85;;
63555;SDS011;49700;48.072;7.800;2023-11-19T14:24:41;7.40;;;2.93;;
63555;SDS011;49700;48.072;7.800;2023-11-19T14:27:10;1.63;;;1.52;;
63555;SDS011;49700;48.072;7.800;2023-11-19T14:29:36;2.77;;;2.10;;
63555;SDS011;49700;48.072;7.800;2023-11-19T14:32:02;2.92;;;2.60;;
63555;SDS011;49700;48.072;7.800;2023-11-19T14:34:31;2.38;;;1.92;;
63555;SDS011;49700;48.072;7.800;2023-11-19T14:36:57;2.25;;;1.92;;
63555;SDS011;49700;48.072;7.800;2023-11-19T14:39:23;3.00;;;2.10;;
63555;SDS011;49700;48.072;7.800;2023-11-19T14:41:49;2.77;;;1.50;;
63555;SDS011;49700;48.072;7.800;2023-11-19T14:44:15;3.50;;;3.08;;
63555;SDS011;49700;48.072;7.800;2023-11-19T14:46:41;7.80;;;2.03;;
63555;SDS011;49700;48.072;7.800;2023-11-19T14:49:07;2.10;;;1.53;;
63555;SDS011;49700;48.072;7.800;2023-11-19T14:51:36;1.95;;;1.55;;
63555;SDS011;49700;48.072;7.800;2023-11-19T14:54:05;2.15;;;1.33;;
63555;SDS011;49700;48.072;7.800;2023-11-19T14:56:31;2.37;;;1.40;;
63555;SDS011;49700;48.072;7.800;2023-11-19T14:58:56;2.50;;;1.50;;
63555;SDS011;49700;48.072;7.800;2023-11-19T15:01:22;2.80;;;1.53;;
63555;SDS011;49700;48.072;7.800;2023-11-19T15:03:47;2.47;;;1.80;;
63555;SDS011;49700;48.072;7.800;2023-11-19T15:06:13;2.20;;;2.03;;